createdAt,value
2023-05-07T00:00:30.364Z,100.00
2023-05-07T00:03:03.494Z,100.00
2023-05-07T00:05:50.356Z,100.00
2023-05-07T00:08:23.500Z,100.00
2023-05-07T00:11:17.354Z,100.00
2023-05-07T00:14:11.359Z,100.00
2023-05-07T00:16:58.526Z,100.00
2023-05-07T00:19:32.853Z,100.00
2023-05-07T00:22:19.365Z,100.00
2023-05-07T00:24:52.483Z,100.00
2023-05-07T00:27:39.356Z,100.00
2023-05-07T00:30:13.622Z,100.00
2023-05-07T00:33:00.413Z,100.00
2023-05-07T00:35:33.502Z,100.00
2023-05-07T00:38:20.413Z,100.00
2023-05-07T00:40:53.778Z,100.00
2023-05-07T00:43:42.668Z,100.00
2023-05-07T00:46:17.012Z,100.00
2023-05-07T00:49:03.382Z,100.00
2023-05-07T00:51:37.477Z,100.00
2023-05-07T00:54:24.409Z,100.00
2023-05-07T00:56:57.463Z,100.00
2023-05-07T00:59:44.420Z,100.00
2023-05-07T01:02:17.536Z,100.00
2023-05-07T01:05:04.449Z,100.00
2023-05-07T01:07:45.398Z,100.00
2023-05-07T01:10:39.389Z,100.00
2023-05-07T01:13:34.415Z,100.00
2023-05-07T01:16:29.384Z,100.00
2023-05-07T01:19:20.415Z,100.00
2023-05-07T01:21:58.716Z,100.00
2023-05-07T01:24:45.400Z,100.00
2023-05-07T01:27:25.378Z,100.00
2023-05-07T01:30:19.383Z,100.00
2023-05-07T01:33:15.396Z,100.00
2023-05-07T01:35:52.533Z,100.00
2023-05-07T01:38:40.415Z,100.00
2023-05-07T01:41:14.518Z,100.00
2023-05-07T01:44:02.403Z,100.00
2023-05-07T01:46:36.607Z,100.00
2023-05-07T01:49:24.397Z,100.00
2023-05-07T01:51:57.525Z,100.00
2023-05-07T01:54:44.404Z,100.00
2023-05-07T01:57:24.402Z,100.00
2023-05-07T02:00:12.646Z,100.00
2023-05-07T02:02:53.441Z,100.00
2023-05-07T02:05:40.470Z,100.00
2023-05-07T02:08:13.532Z,100.00
2023-05-07T02:11:01.659Z,100.00
2023-05-07T02:13:37.523Z,100.00
2023-05-07T02:16:24.491Z,100.00
2023-05-07T02:18:57.658Z,100.00
2023-05-07T02:21:44.409Z,100.00
2023-05-07T02:24:17.574Z,100.00
2023-05-07T02:27:04.380Z,100.00
2023-05-07T02:29:44.408Z,100.00
2023-05-07T02:32:31.464Z,100.00
2023-05-07T02:35:04.503Z,100.00
2023-05-07T02:37:51.447Z,100.00
2023-05-07T02:40:31.421Z,100.00
2023-05-07T02:43:25.453Z,100.00
2023-05-07T02:46:14.458Z,100.00
2023-05-07T02:48:47.568Z,100.00
2023-05-07T02:51:34.439Z,100.00
2023-05-07T02:54:07.905Z,100.00
2023-05-07T02:56:54.460Z,100.00
2023-05-07T02:59:27.566Z,100.00
2023-05-07T03:02:14.425Z,100.00
2023-05-07T03:04:47.604Z,100.00
2023-05-07T03:07:34.437Z,100.00
2023-05-07T03:10:07.562Z,100.00
2023-05-07T03:13:01.508Z,100.00
2023-05-07T03:15:55.508Z,100.00
2023-05-07T03:18:42.468Z,100.00
2023-05-07T03:21:15.748Z,100.00
2023-05-07T03:24:02.466Z,100.00
2023-05-07T03:26:35.601Z,100.00
2023-05-07T03:29:22.469Z,100.00
2023-05-07T03:31:55.561Z,100.00
2023-05-07T03:34:42.446Z,100.00
2023-05-07T03:37:15.587Z,100.00
2023-05-07T03:40:02.445Z,100.00
2023-05-07T03:42:36.573Z,100.00
2023-05-07T03:45:23.464Z,100.00
2023-05-07T03:47:56.603Z,100.00
2023-05-07T03:50:43.477Z,100.00
2023-05-07T03:53:16.568Z,100.00
2023-05-07T03:55:57.469Z,100.00
2023-05-07T03:58:37.565Z,100.00
2023-05-07T04:01:17.448Z,100.00
2023-05-07T04:03:57.840Z,100.00
2023-05-07T04:06:38.471Z,100.00
2023-05-07T04:09:18.513Z,100.00
2023-05-07T04:11:58.471Z,100.00
2023-05-07T04:14:45.475Z,100.00
2023-05-07T04:17:25.507Z,100.00
2023-05-07T04:20:14.454Z,100.00
2023-05-07T04:22:47.571Z,100.00
2023-05-07T04:25:34.473Z,100.00
2023-05-07T04:28:14.536Z,100.00
2023-05-07T04:31:01.488Z,100.00
2023-05-07T04:33:41.463Z,100.00
2023-05-07T04:36:35.483Z,100.00
2023-05-07T04:39:29.490Z,100.00
2023-05-07T04:42:17.488Z,100.00
2023-05-07T04:44:52.583Z,100.00
2023-05-07T04:47:39.535Z,100.00
2023-05-07T04:50:14.588Z,100.00
2023-05-07T04:53:01.478Z,100.00
2023-05-07T04:55:34.705Z,100.00
2023-05-07T04:58:21.494Z,100.00
2023-05-07T05:00:54.596Z,100.00
2023-05-07T05:03:41.514Z,100.00
2023-05-07T05:06:14.596Z,100.00
2023-05-07T05:09:01.487Z,100.00
2023-05-07T05:11:41.510Z,100.00
2023-05-07T05:14:35.494Z,100.00
2023-05-07T05:17:22.558Z,100.00
2023-05-07T05:20:02.531Z,100.00
2023-05-07T05:22:50.490Z,100.00
2023-05-07T05:25:30.487Z,100.00
2023-05-07T05:28:17.537Z,100.00
2023-05-07T05:30:50.940Z,100.00
2023-05-07T05:33:37.516Z,100.00
2023-05-07T05:36:18.512Z,100.00
2023-05-07T05:39:12.521Z,100.00
2023-05-07T05:42:06.512Z,100.00
2023-05-07T05:44:53.514Z,100.00
2023-05-07T05:47:26.608Z,100.00
2023-05-07T05:50:14.521Z,100.00
2023-05-07T05:52:47.636Z,100.00
2023-05-07T05:55:34.527Z,100.00
2023-05-07T05:58:08.623Z,100.00
2023-05-07T06:00:55.523Z,100.00
2023-05-07T06:03:35.519Z,100.00
2023-05-07T06:06:29.521Z,100.00
2023-05-07T06:09:23.538Z,100.00
2023-05-07T06:12:17.564Z,100.00
2023-05-07T06:15:11.510Z,100.00
2023-05-07T06:18:05.564Z,100.00
2023-05-07T06:20:52.540Z,100.00
2023-05-07T06:23:25.755Z,99.85
2023-05-07T06:26:12.557Z,98.84
2023-05-07T06:28:45.640Z,97.88
2023-05-07T06:31:38.619Z,99.98
2023-05-07T06:34:15.131Z,99.24
2023-05-07T06:37:02.543Z,96.54
2023-05-07T06:39:35.924Z,95.30
2023-05-07T06:42:22.527Z,94.72
2023-05-07T06:44:56.082Z,95.25
2023-05-07T06:47:42.590Z,94.51
2023-05-07T06:50:24.566Z,95.53
2023-05-07T06:53:11.549Z,93.82
2023-05-07T06:55:44.640Z,95.00
2023-05-07T06:58:31.559Z,92.39
2023-05-07T07:01:04.686Z,93.76
2023-05-07T07:03:51.555Z,90.56
2023-05-07T07:06:31.557Z,91.09
2023-05-07T07:09:18.547Z,92.68
2023-05-07T07:11:51.689Z,91.12
2023-05-07T07:14:45.577Z,90.57
2023-05-07T07:17:39.664Z,89.22
2023-05-07T07:20:33.559Z,89.58
2023-05-07T07:23:13.566Z,88.82
2023-05-07T07:25:53.653Z,89.23
2023-05-07T07:28:33.539Z,89.38
2023-05-07T07:31:20.633Z,88.85
2023-05-07T07:34:14.546Z,89.29
2023-05-07T07:37:12.569Z,87.27
2023-05-07T07:39:59.684Z,87.34
2023-05-07T07:42:32.699Z,87.45
2023-05-07T07:45:19.581Z,89.10
2023-05-07T07:47:52.695Z,86.84
2023-05-07T07:50:44.988Z,85.57
2023-05-07T07:53:25.571Z,84.46
2023-05-07T07:56:19.573Z,84.19
2023-05-07T07:59:06.583Z,82.53
2023-05-07T08:01:46.664Z,82.70
2023-05-07T08:04:40.662Z,84.09
2023-05-07T08:07:30.573Z,83.96
2023-05-07T08:10:03.757Z,84.20
2023-05-07T08:12:57.605Z,83.16
2023-05-07T08:15:51.608Z,81.09
2023-05-07T08:18:45.584Z,80.88
2023-05-07T08:21:34.617Z,82.01
2023-05-07T08:24:07.690Z,82.08
2023-05-07T08:26:54.586Z,83.34
2023-05-07T08:29:27.695Z,81.39
2023-05-07T08:32:14.668Z,84.27
2023-05-07T08:34:47.713Z,81.07
2023-05-07T08:37:34.602Z,82.86
2023-05-07T08:40:10.738Z,83.36
2023-05-07T08:43:00.632Z,84.55
2023-05-07T08:45:35.762Z,84.92
2023-05-07T08:48:23.635Z,84.68
2023-05-07T08:50:57.709Z,86.29
2023-05-07T08:53:48.592Z,87.00
2023-05-07T08:56:29.643Z,87.72
2023-05-07T08:59:16.625Z,88.33
2023-05-07T09:01:49.830Z,88.29
2023-05-07T09:04:36.638Z,88.60
2023-05-07T09:07:16.616Z,89.22
2023-05-07T09:10:10.697Z,90.24
2023-05-07T09:13:05.752Z,90.44
2023-05-07T09:15:52.713Z,90.86
2023-05-07T09:18:26.475Z,90.14
2023-05-07T09:21:17.619Z,90.84
2023-05-07T09:23:57.853Z,91.00
2023-05-07T09:26:44.616Z,90.75
2023-05-07T09:29:25.617Z,90.16
2023-05-07T09:32:16.609Z,91.08
2023-05-07T09:34:56.634Z,90.75
2023-05-07T09:37:43.635Z,90.51
2023-05-07T09:40:34.652Z,90.81
2023-05-07T09:43:28.648Z,90.44
2023-05-07T09:46:31.669Z,90.72
2023-05-07T09:49:27.659Z,90.86
2023-05-07T09:52:00.735Z,90.80
2023-05-07T09:54:50.674Z,89.88
2023-05-07T09:57:33.627Z,90.36
2023-05-07T10:00:30.649Z,89.82
2023-05-07T10:03:19.726Z,90.87
2023-05-07T10:06:01.625Z,91.17
2023-05-07T10:08:57.648Z,92.05
2023-05-07T10:11:44.625Z,91.67
2023-05-07T10:14:25.654Z,91.69
2023-05-07T10:17:20.676Z,92.58
2023-05-07T10:20:08.569Z,92.23
2023-05-07T10:22:55.682Z,92.15
2023-05-07T10:25:42.671Z,92.38
2023-05-07T10:28:26.672Z,92.79
2023-05-07T10:32:04.661Z,92.14
2023-05-07T10:34:45.853Z,92.86
2023-05-07T10:37:32.685Z,92.90
2023-05-07T10:40:14.724Z,93.39
2023-05-07T10:43:14.691Z,93.23
2023-05-07T10:46:18.768Z,93.78
2023-05-07T10:49:12.549Z,92.90
2023-05-07T10:52:38.684Z,93.40
2023-05-07T10:55:44.709Z,93.11
2023-05-07T10:58:44.729Z,92.59
2023-05-07T11:02:05.769Z,92.63
2023-05-07T11:04:40.113Z,92.98
2023-05-07T11:07:35.685Z,94.00
2023-05-07T11:10:10.773Z,93.90
2023-05-07T11:13:05.734Z,94.17
2023-05-07T11:15:54.685Z,94.35
2023-05-07T11:18:27.895Z,94.90
2023-05-07T11:21:14.693Z,94.75
2023-05-07T11:23:55.685Z,95.10
2023-05-07T11:26:53.711Z,95.51
2023-05-07T11:29:30.070Z,95.17
2023-05-07T11:32:16.695Z,95.23
2023-05-07T11:34:57.668Z,95.65
2023-05-07T11:37:51.689Z,95.70
2023-05-07T11:40:38.685Z,94.53
2023-05-07T11:43:20.889Z,94.53
2023-05-07T11:46:16.700Z,94.43
2023-05-07T11:48:50.870Z,95.31
2023-05-07T11:51:38.739Z,95.74
2023-05-07T11:54:18.917Z,95.21
2023-05-07T11:57:06.732Z,95.04
2023-05-07T11:59:48.490Z,95.11
2023-05-07T12:02:35.793Z,95.78
2023-05-07T12:05:08.840Z,95.84
2023-05-07T12:07:55.676Z,96.56
2023-05-07T12:10:28.816Z,96.62
2023-05-07T12:13:38.687Z,97.14
2023-05-07T12:16:33.728Z,97.83
2023-05-07T12:19:27.728Z,98.20
2023-05-07T12:22:17.680Z,98.52
2023-05-07T12:24:55.923Z,98.89
2023-05-07T12:27:46.692Z,98.14
2023-05-07T12:30:27.768Z,97.63
2023-05-07T12:33:21.709Z,98.24
2023-05-07T12:36:12.710Z,98.27
2023-05-07T12:38:53.713Z,98.13
2023-05-07T12:42:06.703Z,99.19
2023-05-07T12:44:53.731Z,99.54
2023-05-07T12:47:34.792Z,99.80
2023-05-07T12:50:29.735Z,99.91
2023-05-07T12:53:19.732Z,99.62
2023-05-07T12:55:55.844Z,99.21
2023-05-07T12:58:43.712Z,98.65
2023-05-07T13:01:20.247Z,98.80
2023-05-07T13:04:11.793Z,99.29
2023-05-07T13:06:44.825Z,98.00
2023-05-07T13:09:31.728Z,98.57
2023-05-07T13:12:12.732Z,99.22
2023-05-07T13:15:06.726Z,99.57
2023-05-07T13:17:53.837Z,99.60
2023-05-07T13:20:26.808Z,99.69
2023-05-07T13:23:13.735Z,99.87
2023-05-07T13:25:46.865Z,100.00
2023-05-07T13:28:33.741Z,100.00
2023-05-07T13:31:13.778Z,100.00
2023-05-07T13:34:00.709Z,100.00
2023-05-07T13:36:38.058Z,100.00
2023-05-07T13:39:24.754Z,100.00
2023-05-07T13:41:57.953Z,100.00
2023-05-07T13:44:44.820Z,100.00
2023-05-07T13:47:18.854Z,100.00
2023-05-07T13:50:05.737Z,100.00
2023-05-07T13:52:47.140Z,100.00
2023-05-07T13:55:40.757Z,100.00
2023-05-07T13:58:36.522Z,100.00
2023-05-07T14:01:31.842Z,100.00
2023-05-07T14:04:18.760Z,100.00
2023-05-07T14:06:51.877Z,100.00
2023-05-07T14:09:38.739Z,100.00
2023-05-07T14:12:12.820Z,100.00
2023-05-07T14:15:06.758Z,100.00
2023-05-07T14:18:00.791Z,100.00
2023-05-07T14:20:47.772Z,100.00
2023-05-07T14:23:23.121Z,100.00
2023-05-07T14:26:09.742Z,100.00
2023-05-07T14:28:47.263Z,100.00
2023-05-07T14:31:33.857Z,100.00
2023-05-07T14:34:13.752Z,100.00
2023-05-07T14:37:07.769Z,100.00
2023-05-07T14:39:54.777Z,100.00
2023-05-07T14:42:27.852Z,100.00
2023-05-07T14:45:15.762Z,100.00
2023-05-07T14:47:48.963Z,100.00
2023-05-07T14:50:35.763Z,100.00
2023-05-07T14:53:18.765Z,100.00
2023-05-07T14:56:12.802Z,100.00
2023-05-07T14:58:59.752Z,100.00
2023-05-07T15:01:32.993Z,100.00
2023-05-07T15:04:19.796Z,100.00
2023-05-07T15:07:01.767Z,100.00
2023-05-07T15:09:52.940Z,100.00
2023-05-07T15:12:32.815Z,100.00
2023-05-07T15:15:26.900Z,100.00
2023-05-07T15:18:22.921Z,100.00
2023-05-07T15:21:09.789Z,100.00
2023-05-07T15:23:42.897Z,100.00
2023-05-07T15:26:30.790Z,100.00
2023-05-07T15:29:15.775Z,100.00
2023-05-07T15:32:09.885Z,100.00
2023-05-07T15:35:03.775Z,100.00
2023-05-07T15:37:57.781Z,100.00
2023-05-07T15:40:48.838Z,100.00
2023-05-07T15:43:22.635Z,100.00
2023-05-07T15:46:09.827Z,100.00
2023-05-07T15:48:43.009Z,100.00
2023-05-07T15:51:29.812Z,100.00
2023-05-07T15:54:09.866Z,100.00
2023-05-07T15:57:03.775Z,100.00
2023-05-07T15:59:57.811Z,100.00
2023-05-07T16:02:52.018Z,100.00
2023-05-07T16:05:45.819Z,100.00
2023-05-07T16:08:32.803Z,100.00
2023-05-07T16:11:13.796Z,100.00
2023-05-07T16:14:07.794Z,100.00
2023-05-07T16:17:01.919Z,100.00
2023-05-07T16:19:48.804Z,100.00
2023-05-07T16:22:28.805Z,100.00
2023-05-07T16:25:15.813Z,100.00
2023-05-07T16:27:55.802Z,100.00
2023-05-07T16:30:49.877Z,100.00
2023-05-07T16:33:36.799Z,100.00
2023-05-07T16:36:10.007Z,100.00
2023-05-07T16:38:56.828Z,100.00
2023-05-07T16:41:29.942Z,100.00
2023-05-07T16:44:16.838Z,100.00
2023-05-07T16:46:57.824Z,100.00
2023-05-07T16:49:53.033Z,100.00
2023-05-07T16:52:48.830Z,100.00
2023-05-07T16:55:41.802Z,100.00
2023-05-07T16:58:17.028Z,100.00
2023-05-07T17:01:03.827Z,100.00
2023-05-07T17:03:43.855Z,100.00
2023-05-07T17:06:37.817Z,100.00
2023-05-07T17:09:24.885Z,100.00
2023-05-07T17:11:58.038Z,100.00
2023-05-07T17:14:51.842Z,100.00
2023-05-07T17:17:38.868Z,100.00
2023-05-07T17:20:19.830Z,100.00
2023-05-07T17:23:14.843Z,100.00
2023-05-07T17:26:01.829Z,100.00
2023-05-07T17:28:36.952Z,100.00
2023-05-07T17:31:23.909Z,100.00
2023-05-07T17:34:05.882Z,100.00
2023-05-07T17:36:59.920Z,100.00
2023-05-07T17:39:48.821Z,100.00
2023-05-07T17:42:22.046Z,100.00
2023-05-07T17:45:08.841Z,100.00
2023-05-07T17:47:48.869Z,100.00
2023-05-07T17:50:43.918Z,100.00
2023-05-07T17:53:30.855Z,100.00
2023-05-07T17:56:10.839Z,100.00
2023-05-07T17:59:07.834Z,100.00
2023-05-07T18:01:54.981Z,100.00
2023-05-07T18:04:29.136Z,100.00
2023-05-07T18:07:15.813Z,100.00
2023-05-07T18:09:49.053Z,100.00
2023-05-07T18:12:36.844Z,100.00
2023-05-07T18:15:17.873Z,100.00
2023-05-07T18:18:11.895Z,100.00
2023-05-07T18:20:58.901Z,100.00
2023-05-07T18:23:35.640Z,100.00
2023-05-07T18:26:23.932Z,100.00
2023-05-07T18:28:56.988Z,100.00
2023-05-07T18:31:44.097Z,100.00
2023-05-07T18:34:18.004Z,100.00
2023-05-07T18:37:04.878Z,100.00
2023-05-07T18:39:39.020Z,100.00
2023-05-07T18:42:25.876Z,100.00
2023-05-07T18:44:59.029Z,100.00
2023-05-07T18:47:45.949Z,100.00
2023-05-07T18:50:19.747Z,100.00
2023-05-07T18:53:08.850Z,100.00
2023-05-07T18:55:53.887Z,100.00
2023-05-07T18:58:40.858Z,100.00
2023-05-07T19:01:20.934Z,100.00
2023-05-07T19:04:07.930Z,100.00
2023-05-07T19:06:48.877Z,100.00
2023-05-07T19:09:53.658Z,100.00
2023-05-07T19:12:54.923Z,100.00
2023-05-07T19:15:48.921Z,100.00
2023-05-07T19:18:42.882Z,100.00
2023-05-07T19:21:29.864Z,100.00
2023-05-07T19:24:03.003Z,100.00
2023-05-07T19:26:50.950Z,100.00
2023-05-07T19:29:24.116Z,100.00
2023-05-07T19:32:10.955Z,100.00
2023-05-07T19:34:46.028Z,100.00
2023-05-07T19:37:34.898Z,100.00
2023-05-07T19:40:11.796Z,100.00
2023-05-07T19:43:03.903Z,100.00
2023-05-07T19:45:43.932Z,100.00
2023-05-07T19:48:30.880Z,100.00
2023-05-07T19:51:05.068Z,100.00
2023-05-07T19:53:52.903Z,100.00
2023-05-07T19:56:26.273Z,100.00
2023-05-07T19:59:13.896Z,100.00
2023-05-07T20:01:49.060Z,100.00
2023-05-07T20:04:39.877Z,100.00
2023-05-07T20:07:15.082Z,100.00
2023-05-07T20:10:01.963Z,100.00
2023-05-07T20:12:45.978Z,100.00
2023-05-07T20:15:39.966Z,100.00
2023-05-07T20:18:33.916Z,100.00
2023-05-07T20:21:29.901Z,100.00
2023-05-07T20:24:25.885Z,100.00
2023-05-07T20:27:12.908Z,100.00
2023-05-07T20:29:46.661Z,100.00
2023-05-07T20:32:32.946Z,100.00
2023-05-07T20:35:12.884Z,100.00
2023-05-07T20:37:59.922Z,100.00
2023-05-07T20:40:36.992Z,100.00
2023-05-07T20:43:24.918Z,100.00
2023-05-07T20:46:15.013Z,100.00
2023-05-07T20:49:02.905Z,100.00
2023-05-07T20:51:43.912Z,100.00
2023-05-07T20:54:37.893Z,100.00
2023-05-07T20:57:25.929Z,100.00
2023-05-07T20:59:59.239Z,100.00
2023-05-07T21:02:46.940Z,100.00
2023-05-07T21:05:26.920Z,100.00
2023-05-07T21:08:20.924Z,100.00
2023-05-07T21:11:16.927Z,100.00
2023-05-07T21:14:10.938Z,100.00
2023-05-07T21:16:57.972Z,100.00
2023-05-07T21:19:37.913Z,100.00
2023-05-07T21:22:31.963Z,100.00
2023-05-07T21:25:25.920Z,100.00
2023-05-07T21:28:14.923Z,100.00
2023-05-07T21:30:54.921Z,100.00
2023-05-07T21:33:48.967Z,100.00
2023-05-07T21:36:35.950Z,100.00
2023-05-07T21:39:09.150Z,100.00
2023-05-07T21:41:55.909Z,100.00
2023-05-07T21:44:35.918Z,100.00
2023-05-07T21:47:22.951Z,100.00
2023-05-07T21:50:02.956Z,100.00
2023-05-07T21:52:56.931Z,100.00
2023-05-07T21:55:43.946Z,100.00
2023-05-07T21:58:17.009Z,100.00
2023-05-07T22:01:04.971Z,100.00
2023-05-07T22:03:38.102Z,100.00
2023-05-07T22:06:27.921Z,100.00
2023-05-07T22:09:07.951Z,100.00
2023-05-07T22:12:01.942Z,100.00
2023-05-07T22:14:48.908Z,100.00
2023-05-07T22:17:30.977Z,100.00
2023-05-07T22:20:24.929Z,100.00
2023-05-07T22:23:18.950Z,100.00
2023-05-07T22:26:05.965Z,100.00
2023-05-07T22:28:39.071Z,100.00
2023-05-07T22:31:25.995Z,100.00
2023-05-07T22:33:59.091Z,100.00
2023-05-07T22:36:45.955Z,100.00
2023-05-07T22:39:25.936Z,100.00
2023-05-07T22:42:19.953Z,100.00
2023-05-07T22:45:06.951Z,100.00
2023-05-07T22:47:46.987Z,100.00
2023-05-07T22:50:40.966Z,100.00
2023-05-07T22:53:27.949Z,100.00
2023-05-07T22:56:03.699Z,100.00
2023-05-07T22:58:49.946Z,100.00
2023-05-07T23:01:31.022Z,100.00
2023-05-07T23:04:24.944Z,100.00
2023-05-07T23:07:11.960Z,100.00
2023-05-07T23:09:45.199Z,100.00
2023-05-07T23:12:31.958Z,100.00
2023-05-07T23:15:11.975Z,100.00
2023-05-07T23:18:06.987Z,100.00
2023-05-07T23:21:00.973Z,100.00
2023-05-07T23:23:54.960Z,100.00
2023-05-07T23:26:48.956Z,100.00
2023-05-07T23:29:42.980Z,100.00
2023-05-07T23:32:29.984Z,100.00
2023-05-07T23:35:03.445Z,100.00
2023-05-07T23:37:49.958Z,100.00
2023-05-07T23:40:30.973Z,100.00
2023-05-07T23:43:17.991Z,100.00
2023-05-07T23:45:57.972Z,100.00
2023-05-07T23:48:51.982Z,100.00
2023-05-07T23:51:45.982Z,100.00
2023-05-07T23:54:34.247Z,100.00
2023-05-07T23:57:07.072Z,100.00
2023-05-07T23:59:53.993Z,100.00
